Time;durP1;ratioP1;P1;durP2;ratioP2;P2;SDS_P1;SDS_P2;PMS_P1;PMS_P2;Temp;Humidity;BMP_temperature;BMP_pressure;BME280_temperature;BME280_humidity;BME280_pressure;Samples;Min_cycle;Max_cycle;Signal;HPM_P1;HPM_P2
2024/01/19 00:00:16;;;;;;;4.95;3.25;;;19.20;50.40;;;;;;5037117;28;20057;-46
2024/01/19 00:02:42;;;;;;;5.15;3.60;;;19.20;50.40;;;;;;5031501;28;20295;-53
2024/01/19 00:05:08;;;;;;;4.82;3.20;;;19.20;50.40;;;;;;5026296;28;20483;-50
2024/01/19 00:07:33;;;;;;;4.43;3.03;;;19.20;51.10;;;;;;5039416;28;20567;-50
2024/01/19 00:09:59;;;;;;;4.68;3.60;;;19.20;50.40;;;;;;5029881;28;20079;-55
2024/01/19 00:12:24;;;;;;;3.95;2.70;;;19.20;50.50;;;;;;5030647;28;20498;-50
2024/01/19 00:14:50;;;;;;;3.03;2.58;;;19.20;50.40;;;;;;5033636;28;20029;-49
2024/01/19 00:17:15;;;;;;;4.10;3.13;;;19.20;50.40;;;;;;5028683;28;20099;-50
2024/01/19 00:19:41;;;;;;;3.38;2.90;;;19.20;50.40;;;;;;5017485;28;20048;-48
2024/01/19 00:22:06;;;;;;;4.78;2.95;;;19.20;50.40;;;;;;5032634;28;20033;-52
2024/01/19 00:24:32;;;;;;;3.83;2.72;;;19.20;50.40;;;;;;5030630;28;20029;-50
2024/01/19 00:26:57;;;;;;;3.88;2.88;;;19.20;50.40;;;;;;5027183;28;20041;-57
2024/01/19 00:29:23;;;;;;;3.42;2.70;;;19.20;50.40;;;;;;5031162;28;20529;-49
2024/01/19 00:31:49;;;;;;;3.70;2.85;;;19.20;50.40;;;;;;5034161;28;20426;-49
2024/01/19 00:34:15;;;;;;;5.60;2.80;;;19.20;50.40;;;;;;5033764;28;20085;-47
2024/01/19 00:36:41;;;;;;;3.78;3.08;;;19.20;50.40;;;;;;5031874;28;20042;-55
2024/01/19 00:39:06;;;;;;;3.85;2.78;;;19.20;50.40;;;;;;5028148;28;20036;-49
2024/01/19 00:41:32;;;;;;;3.10;2.50;;;19.20;50.40;;;;;;5032361;28;20029;-50
2024/01/19 00:43:58;;;;;;;3.42;2.55;;;19.20;50.40;;;;;;5037767;28;20037;-48
2024/01/19 00:46:24;;;;;;;3.65;2.47;;;19.20;50.40;;;;;;5028041;28;20407;-47
2024/01/19 00:48:49;;;;;;;3.95;2.78;;;19.20;50.40;;;;;;5030599;28;20102;-51
2024/01/19 00:51:16;;;;;;;4.03;2.50;;;19.20;50.40;;;;;;5031735;28;20092;-55
2024/01/19 00:53:42;;;;;;;5.10;2.72;;;19.20;51.10;;;;;;5020837;28;20029;-52
2024/01/19 00:56:08;;;;;;;4.50;2.75;;;19.20;50.40;;;;;;5032373;28;20021;-54
2024/01/19 00:58:35;;;;;;;3.20;2.20;;;19.20;50.40;;;;;;5032940;28;20044;-53
2024/01/19 01:01:00;;;;;;;3.78;2.17;;;19.20;50.40;;;;;;5028130;28;20033;-49
2024/01/19 01:03:28;;;;;;;3.70;2.55;;;19.20;50.40;;;;;;5030105;28;20618;-52
2024/01/19 01:05:59;;;;;;;2.88;2.25;;;19.20;50.50;;;;;;5030041;28;20112;-50
2024/01/19 01:08:25;;;;;;;3.03;2.38;;;19.20;50.60;;;;;;5027511;28;20029;-49
2024/01/19 01:10:52;;;;;;;2.15;1.95;;;19.10;50.60;;;;;;5034102;28;20033;-50
2024/01/19 01:13:17;;;;;;;4.28;2.75;;;19.10;50.60;;;;;;5026934;28;20030;-50
2024/01/19 01:15:43;;;;;;;4.72;2.55;;;19.00;50.70;;;;;;5026094;28;20474;-51
2024/01/19 01:18:08;;;;;;;3.08;2.15;;;19.00;50.90;;;;;;5034556;28;20724;-48
2024/01/19 01:20:34;;;;;;;3.15;2.45;;;18.90;50.90;;;;;;5030686;28;20029;-49
2024/01/19 01:22:59;;;;;;;3.90;2.00;;;18.80;51.00;;;;;;5026344;28;20029;-49
2024/01/19 01:25:25;;;;;;;4.43;2.17;;;18.80;51.20;;;;;;5031251;28;20714;-53
2024/01/19 01:27:50;;;;;;;2.67;2.30;;;18.70;51.30;;;;;;5029996;28;20052;-52
2024/01/19 01:30:16;;;;;;;4.10;2.40;;;18.70;51.40;;;;;;5010688;28;20042;-53
2024/01/19 01:32:41;;;;;;;2.28;2.00;;;18.70;51.50;;;;;;5031661;28;20040;-56
2024/01/19 01:35:07;;;;;;;2.53;2.30;;;18.60;51.60;;;;;;5027487;28;20120;-48
2024/01/19 01:37:33;;;;;;;3.08;2.50;;;18.60;51.70;;;;;;5031740;28;20026;-52
2024/01/19 01:39:58;;;;;;;3.00;2.30;;;18.60;51.70;;;;;;5037408;28;20021;-55
2024/01/19 01:42:23;;;;;;;1.95;1.65;;;18.50;51.70;;;;;;5030392;28;20672;-55
2024/01/19 01:44:49;;;;;;;2.70;1.92;;;18.50;51.70;;;;;;5032603;28;20032;-45
2024/01/19 01:47:15;;;;;;;2.55;1.90;;;18.50;51.70;;;;;;5015560;28;20076;-49
2024/01/19 01:49:41;;;;;;;2.97;2.13;;;18.60;51.60;;;;;;5030421;28;20468;-52
2024/01/19 01:52:08;;;;;;;2.05;1.67;;;18.60;51.50;;;;;;5033696;28;20043;-55
2024/01/19 01:54:34;;;;;;;2.47;1.77;;;18.60;51.40;;;;;;5032812;28;20028;-46
2024/01/19 01:57:00;;;;;;;2.40;1.60;;;18.70;51.30;;;;;;5028069;28;20026;-46
2024/01/19 01:59:25;;;;;;;2.42;2.20;;;18.80;51.10;;;;;;5025545;28;20029;-46
2024/01/19 02:01:51;;;;;;;2.53;1.83;;;18.90;51.00;;;;;;5030684;28;20043;-54
2024/01/19 02:04:17;;;;;;;3.33;1.77;;;18.90;50.70;;;;;;5027520;28;20025;-45
2024/01/19 02:06:42;;;;;;;2.42;1.95;;;19.00;50.60;;;;;;5031330;28;21045;-58
2024/01/19 02:09:08;;;;;;;3.60;1.83;;;19.10;50.40;;;;;;5029518;28;20387;-46
2024/01/19 02:11:34;;;;;;;3.00;2.03;;;19.20;50.20;;;;;;5030158;28;20034;-46
2024/01/19 02:13:59;;;;;;;2.30;1.40;;;19.30;50.10;;;;;;5028464;28;20092;-46
2024/01/19 02:16:25;;;;;;;2.45;1.58;;;19.40;50.00;;;;;;5031412;28;20065;-54
2024/01/19 02:18:53;;;;;;;2.22;1.75;;;19.50;49.90;;;;;;5029329;28;20045;-46
2024/01/19 02:21:18;;;;;;;2.80;1.90;;;19.60;49.80;;;;;;5034074;28;20022;-47
2024/01/19 02:23:59;;;;;;;2.33;1.75;;;19.60;49.60;;;;;;5037260;28;20543;-47
2024/01/19 02:26:25;;;;;;;1.92;1.73;;;19.70;49.50;;;;;;5034183;28;20033;-57
2024/01/19 02:28:51;;;;;;;2.05;1.70;;;19.70;49.40;;;;;;5035623;28;20531;-46
2024/01/19 02:31:17;;;;;;;2.28;1.60;;;19.80;49.40;;;;;;5028636;28;20214;-50
2024/01/19 02:33:43;;;;;;;2.08;1.60;;;19.80;49.30;;;;;;5017989;28;20116;-46
2024/01/19 02:36:08;;;;;;;2.75;1.80;;;19.80;49.20;;;;;;5037140;28;20120;-51
2024/01/19 02:38:34;;;;;;;3.33;1.60;;;19.90;49.20;;;;;;5035772;28;20040;-48
2024/01/19 02:40:59;;;;;;;2.45;1.70;;;19.90;49.20;;;;;;5030333;28;20029;-48
2024/01/19 02:43:25;;;;;;;3.47;1.50;;;19.90;49.20;;;;;;5035762;28;20113;-48
2024/01/19 02:45:50;;;;;;;2.00;1.75;;;19.90;49.20;;;;;;5034163;28;20080;-47
2024/01/19 02:48:16;;;;;;;2.05;1.60;;;19.90;49.20;;;;;;5028119;28;20534;-48
2024/01/19 02:50:41;;;;;;;1.88;1.48;;;19.90;49.20;;;;;;5023050;28;20045;-53
2024/01/19 02:53:07;;;;;;;1.27;1.08;;;19.90;49.20;;;;;;5033503;28;20109;-46
2024/01/19 02:55:32;;;;;;;2.03;1.67;;;19.90;49.20;;;;;;5030495;28;20025;-47
2024/01/19 02:57:58;;;;;;;2.72;1.80;;;19.90;49.20;;;;;;5041952;28;20029;-53
2024/01/19 03:00:23;;;;;;;1.58;1.20;;;19.80;49.20;;;;;;5024184;28;20139;-48
2024/01/19 03:02:49;;;;;;;2.10;1.65;;;19.80;49.30;;;;;;5035214;28;20037;-47
2024/01/19 03:05:15;;;;;;;2.97;1.60;;;19.80;49.30;;;;;;5027778;28;20040;-49
2024/01/19 03:07:43;;;;;;;1.77;1.30;;;19.80;49.40;;;;;;5031810;28;20099;-54
2024/01/19 03:10:09;;;;;;;2.78;1.55;;;19.80;49.60;;;;;;5007341;28;20499;-48
2024/01/19 03:12:36;;;;;;;2.28;1.80;;;19.70;49.50;;;;;;5028650;28;20120;-54
2024/01/19 03:15:02;;;;;;;1.60;1.30;;;19.70;49.70;;;;;;5012665;28;20041;-50
2024/01/19 03:17:28;;;;;;;1.42;1.33;;;19.60;49.70;;;;;;5016381;28;20050;-50
2024/01/19 03:19:54;;;;;;;1.60;1.48;;;19.60;49.80;;;;;;5015111;28;20041;-52
2024/01/19 03:22:20;;;;;;;1.75;1.55;;;19.50;49.80;;;;;;5003532;28;20079;-47
2024/01/19 03:24:45;;;;;;;1.85;1.73;;;19.50;49.90;;;;;;5011341;28;20040;-49
2024/01/19 03:27:11;;;;;;;1.65;1.45;;;19.40;49.90;;;;;;5029057;28;20072;-54
2024/01/19 03:29:37;;;;;;;1.65;1.25;;;19.40;50.00;;;;;;5015108;28;20526;-49
2024/01/19 03:32:03;;;;;;;1.58;1.30;;;19.40;50.10;;;;;;5028792;28;20406;-49
2024/01/19 03:34:28;;;;;;;1.40;1.30;;;19.30;50.10;;;;;;5018129;28;20033;-53
2024/01/19 03:36:54;;;;;;;1.63;1.50;;;19.30;50.20;;;;;;5030751;28;20131;-45
2024/01/19 03:39:20;;;;;;;1.40;1.30;;;19.30;50.40;;;;;;5012818;28;20037;-46
2024/01/19 03:41:45;;;;;;;2.22;1.08;;;19.20;50.40;;;;;;5011869;28;20102;-53
2024/01/19 03:44:11;;;;;;;1.63;1.48;;;19.20;50.50;;;;;;5010990;28;20103;-53
2024/01/19 03:46:37;;;;;;;1.38;1.23;;;19.20;50.60;;;;;;5027090;28;20175;-47
2024/01/19 03:49:02;;;;;;;2.45;1.70;;;19.20;50.60;;;;;;5018007;28;20029;-47
2024/01/19 03:51:28;;;;;;;1.70;1.30;;;19.10;50.60;;;;;;5027197;28;20048;-54
2024/01/19 03:53:53;;;;;;;1.65;1.30;;;19.10;50.60;;;;;;5030644;28;20029;-50
2024/01/19 03:56:19;;;;;;;1.58;1.33;;;19.10;50.70;;;;;;5033320;28;20112;-47
2024/01/19 03:58:44;;;;;;;1.50;1.27;;;19.00;50.60;;;;;;5032566;28;20383;-52
2024/01/19 04:01:09;;;;;;;1.63;1.30;;;19.00;50.80;;;;;;5027676;28;20068;-49
2024/01/19 04:03:36;;;;;;;2.83;1.20;;;19.00;50.80;;;;;;5029162;28;20513;-56
2024/01/19 04:06:02;;;;;;;2.42;1.40;;;19.00;50.80;;;;;;5026512;28;20858;-55
2024/01/19 04:08:28;;;;;;;2.03;1.17;;;19.00;50.80;;;;;;5030442;28;20037;-51
2024/01/19 04:10:54;;;;;;;1.10;1.00;;;18.90;50.80;;;;;;5031958;28;20051;-56
2024/01/19 04:13:19;;;;;;;1.70;1.35;;;18.90;50.90;;;;;;5026959;28;20029;-56
2024/01/19 04:15:45;;;;;;;3.05;1.40;;;18.90;50.80;;;;;;5036544;28;20034;-53
2024/01/19 04:18:10;;;;;;;1.48;1.30;;;18.90;50.90;;;;;;5028445;28;20104;-47
2024/01/19 04:20:36;;;;;;;2.30;1.60;;;18.90;51.50;;;;;;5027463;28;20029;-50
2024/01/19 04:23:02;;;;;;;1.65;1.15;;;18.90;50.90;;;;;;5033208;28;20472;-55
2024/01/19 04:25:28;;;;;;;2.03;1.30;;;18.90;50.90;;;;;;5027475;28;20152;-53
2024/01/19 04:27:55;;;;;;;1.70;1.40;;;18.80;50.90;;;;;;5030026;28;20135;-47
2024/01/19 04:30:21;;;;;;;1.67;1.17;;;18.90;50.90;;;;;;5033444;28;20033;-50
2024/01/19 04:32:46;;;;;;;1.58;1.27;;;18.80;50.90;;;;;;5028440;28;20047;-54
2024/01/19 04:35:12;;;;;;;1.10;0.90;;;18.80;50.90;;;;;;5030271;28;20079;-53
2024/01/19 04:37:37;;;;;;;1.65;1.35;;;18.80;50.80;;;;;;5031250;28;20087;-55
2024/01/19 04:40:03;;;;;;;1.77;1.45;;;18.80;50.90;;;;;;5027390;28;20080;-48
2024/01/19 04:42:28;;;;;;;1.75;1.38;;;18.80;50.90;;;;;;5031127;28;21755;-55
2024/01/19 04:44:54;;;;;;;1.40;1.20;;;18.80;50.90;;;;;;5033520;28;20036;-49
2024/01/19 04:47:19;;;;;;;1.98;1.00;;;18.80;50.80;;;;;;5032377;28;20474;-46
2024/01/19 04:49:45;;;;;;;1.58;1.15;;;18.80;50.90;;;;;;5031592;28;20033;-46
2024/01/19 04:52:10;;;;;;;2.40;1.65;;;18.80;50.80;;;;;;5019088;28;20057;-50
2024/01/19 04:54:36;;;;;;;1.67;1.00;;;18.80;50.80;;;;;;5030364;28;20025;-48
2024/01/19 04:57:02;;;;;;;1.73;1.40;;;18.80;50.80;;;;;;5016968;28;20041;-50
2024/01/19 04:59:27;;;;;;;1.40;1.08;;;18.80;50.80;;;;;;5020484;28;20060;-60
2024/01/19 05:01:52;;;;;;;2.17;1.40;;;18.80;50.70;;;;;;5040411;28;20044;-50
2024/01/19 05:04:18;;;;;;;1.58;1.20;;;18.80;50.70;;;;;;5035465;28;20060;-54
2024/01/19 05:06:44;;;;;;;1.20;1.10;;;18.90;50.80;;;;;;5031014;28;20091;-47
2024/01/19 05:09:09;;;;;;;2.58;1.45;;;18.90;50.80;;;;;;5026318;28;20021;-46
2024/01/19 05:11:35;;;;;;;1.60;1.02;;;18.80;50.70;;;;;;5032611;28;20029;-49
2024/01/19 05:14:03;;;;;;;1.13;1.02;;;18.90;50.70;;;;;;5032049;28;20037;-52
2024/01/19 05:16:28;;;;;;;1.23;0.90;;;18.80;50.60;;;;;;5026332;28;20630;-51
2024/01/19 05:18:54;;;;;;;1.13;1.00;;;18.80;50.60;;;;;;5031362;28;20056;-47
2024/01/19 05:21:19;;;;;;;1.23;1.10;;;18.90;50.70;;;;;;5025848;28;20025;-51
2024/01/19 05:23:45;;;;;;;2.05;1.02;;;18.90;50.60;;;;;;5025486;28;20047;-52
2024/01/19 05:26:10;;;;;;;1.42;1.15;;;18.90;50.60;;;;;;5029730;28;20029;-54
2024/01/19 05:28:36;;;;;;;1.13;1.02;;;18.90;50.50;;;;;;5029666;28;20124;-49
2024/01/19 05:31:02;;;;;;;1.15;1.05;;;19.00;50.60;;;;;;5025968;28;20045;-51
2024/01/19 05:33:29;;;;;;;1.40;1.13;;;18.90;50.50;;;;;;5029497;28;20453;-49
2024/01/19 05:35:54;;;;;;;1.27;1.02;;;18.90;50.50;;;;;;5029167;28;20029;-51
2024/01/19 05:38:21;;;;;;;1.77;1.08;;;18.90;50.50;;;;;;5028948;28;21149;-47
2024/01/19 05:40:47;;;;;;;1.20;1.10;;;18.90;50.50;;;;;;5036161;28;20053;-53
2024/01/19 05:43:12;;;;;;;1.17;1.08;;;18.90;50.50;;;;;;5025040;28;20574;-46
2024/01/19 05:45:38;;;;;;;1.40;0.98;;;18.90;50.50;;;;;;5039250;28;20029;-46
2024/01/19 05:48:04;;;;;;;1.20;1.10;;;18.90;50.50;;;;;;5042448;28;20032;-48
2024/01/19 05:50:30;;;;;;;1.70;1.10;;;19.00;50.60;;;;;;5038342;28;20044;-55
2024/01/19 05:52:57;;;;;;;1.50;1.17;;;18.90;50.50;;;;;;5030969;28;20033;-57
2024/01/19 05:55:22;;;;;;;1.23;0.95;;;18.90;50.50;;;;;;5032502;28;20112;-52
2024/01/19 05:57:48;;;;;;;2.40;1.15;;;18.90;50.50;;;;;;5031775;28;20303;-52
2024/01/19 06:00:13;;;;;;;1.52;0.77;;;18.90;50.50;;;;;;5034529;28;20049;-48
2024/01/19 06:02:39;;;;;;;1.58;1.20;;;18.90;50.50;;;;;;5037081;28;20073;-49
2024/01/19 06:05:05;;;;;;;1.55;1.20;;;18.90;50.50;;;;;;5021406;28;20033;-48
2024/01/19 06:07:32;;;;;;;1.40;1.00;;;18.90;50.50;;;;;;5031201;28;20041;-54
2024/01/19 06:09:58;;;;;;;0.80;0.80;;;18.90;50.60;;;;;;5035353;28;20500;-51
2024/01/19 06:12:23;;;;;;;1.45;1.10;;;18.90;50.60;;;;;;5031836;28;20033;-48
2024/01/19 06:14:49;;;;;;;1.83;0.95;;;18.90;50.60;;;;;;5034853;28;20059;-48
2024/01/19 06:17:15;;;;;;;2.47;1.38;;;18.80;50.50;;;;;;5033282;28;20474;-56
2024/01/19 06:19:41;;;;;;;1.95;1.13;;;18.80;50.60;;;;;;5029035;28;20042;-56
2024/01/19 06:22:06;;;;;;;1.88;1.30;;;18.80;50.50;;;;;;5032826;28;20654;-52
2024/01/19 06:24:35;;;;;;;2.20;1.38;;;18.80;50.60;;;;;;5031680;28;20026;-48
2024/01/19 06:27:00;;;;;;;1.13;0.98;;;18.80;50.60;;;;;;5027861;28;20422;-52
2024/01/19 06:29:26;;;;;;;1.45;1.00;;;18.80;50.60;;;;;;5034710;28;20025;-48
2024/01/19 06:31:52;;;;;;;1.00;0.90;;;18.80;50.60;;;;;;5030929;28;20181;-51
2024/01/19 06:34:18;;;;;;;1.10;1.00;;;18.80;50.60;;;;;;5029248;28;20826;-49
2024/01/19 06:36:44;;;;;;;1.65;0.80;;;18.80;50.60;;;;;;5035047;28;20045;-50
2024/01/19 06:39:11;;;;;;;2.63;1.10;;;18.80;50.70;;;;;;5030612;28;20053;-48
2024/01/19 06:41:41;;;;;;;2.50;1.10;;;18.80;50.70;;;;;;5036896;28;20025;-48
2024/01/19 06:44:06;;;;;;;2.92;1.50;;;18.80;50.70;;;;;;5039214;28;20029;-51
2024/01/19 06:46:32;;;;;;;3.33;2.00;;;18.80;50.70;;;;;;5037180;28;20106;-51
2024/01/19 06:48:57;;;;;;;3.22;2.03;;;18.80;50.70;;;;;;5036491;28;20127;-53
2024/01/19 06:51:26;;;;;;;4.47;2.17;;;18.80;50.60;;;;;;5039046;28;20395;-49
2024/01/19 06:53:51;;;;;;;3.92;2.40;;;18.80;50.70;;;;;;5035632;28;20037;-51
2024/01/19 06:56:17;;;;;;;3.17;2.33;;;18.80;50.70;;;;;;5035965;28;20048;-48
2024/01/19 06:58:43;;;;;;;5.28;2.78;;;18.80;50.70;;;;;;5035095;28;20037;-47
2024/01/19 07:01:09;;;;;;;6.30;2.60;;;18.70;50.70;;;;;;5030753;28;20117;-50
2024/01/19 07:03:35;;;;;;;4.25;2.38;;;18.70;50.80;;;;;;5034500;28;20052;-49
2024/01/19 07:06:00;;;;;;;6.80;2.78;;;18.70;50.80;;;;;;5010584;28;20025;-53
2024/01/19 07:08:25;;;;;;;7.28;3.92;;;18.60;50.90;;;;;;5009836;28;20103;-48
2024/01/19 07:10:51;;;;;;;7.18;3.00;;;18.60;51.00;;;;;;5032507;28;20041;-50
2024/01/19 07:13:16;;;;;;;5.20;3.30;;;18.50;51.20;;;;;;5030644;28;20033;-49
2024/01/19 07:15:42;;;;;;;7.10;3.72;;;18.50;51.30;;;;;;5027992;28;20398;-47
2024/01/19 07:18:07;;;;;;;6.38;3.67;;;18.40;51.40;;;;;;5018214;28;20049;-50
2024/01/19 07:20:33;;;;;;;11.18;4.82;;;18.40;51.50;;;;;;5030561;28;20041;-48
2024/01/19 07:23:00;;;;;;;9.20;4.97;;;18.30;51.60;;;;;;5028501;28;20028;-47
2024/01/19 07:25:26;;;;;;;8.77;4.38;;;18.30;51.70;;;;;;5021135;28;20037;-50
2024/01/19 07:27:51;;;;;;;11.27;4.95;;;18.30;51.70;;;;;;5030087;28;20033;-52
2024/01/19 07:30:17;;;;;;;8.00;5.28;;;18.20;51.80;;;;;;5028151;28;20041;-51
2024/01/19 07:32:42;;;;;;;7.07;4.47;;;18.20;51.90;;;;;;5035164;28;20041;-53
2024/01/19 07:35:08;;;;;;;10.85;4.88;;;18.20;51.90;;;;;;5030815;28;20029;-50
2024/01/19 07:37:33;;;;;;;11.07;5.07;;;18.20;51.90;;;;;;5026154;28;20409;-49
2024/01/19 07:39:59;;;;;;;8.73;5.00;;;18.20;51.80;;;;;;5035211;28;20025;-49
2024/01/19 07:42:24;;;;;;;9.02;5.40;;;18.20;51.70;;;;;;5028538;28;20137;-47
2024/01/19 07:44:50;;;;;;;10.40;5.50;;;18.30;51.60;;;;;;5030160;28;20491;-48
2024/01/19 07:47:15;;;;;;;10.63;5.60;;;18.40;51.40;;;;;;5026886;28;20105;-49
2024/01/19 07:49:41;;;;;;;10.02;5.60;;;18.50;51.20;;;;;;5030872;28;20033;-50
2024/01/19 07:52:06;;;;;;;10.35;5.05;;;18.60;50.90;;;;;;5023167;28;20038;-57
2024/01/19 07:54:32;;;;;;;10.35;4.90;;;18.70;50.60;;;;;;5031962;28;20033;-50
2024/01/19 07:56:58;;;;;;;8.13;5.10;;;18.90;50.40;;;;;;5025310;28;20040;-48
2024/01/19 07:59:23;;;;;;;11.68;5.47;;;19.00;50.20;;;;;;5027814;28;20082;-51
2024/01/19 08:01:50;;;;;;;10.05;5.20;;;19.20;50.00;;;;;;5031468;28;20033;-51
2024/01/19 08:04:15;;;;;;;10.02;4.75;;;19.30;49.70;;;;;;5033080;28;20040;-49
2024/01/19 08:06:41;;;;;;;10.00;5.35;;;19.40;49.50;;;;;;5026388;28;20654;-47
2024/01/19 08:09:07;;;;;;;8.20;4.90;;;19.50;49.30;;;;;;5031283;28;20710;-45
2024/01/19 08:11:33;;;;;;;7.55;4.70;;;19.60;49.20;;;;;;5026518;28;20041;-52
2024/01/19 08:13:58;;;;;;;10.27;5.13;;;19.60;49.10;;;;;;5027501;28;20047;-46
2024/01/19 08:16:24;;;;;;;8.95;5.05;;;19.70;48.90;;;;;;5031073;28;20045;-50
2024/01/19 08:18:49;;;;;;;7.63;4.78;;;19.80;48.90;;;;;;5030646;28;20044;-48
2024/01/19 08:21:15;;;;;;;9.13;4.90;;;19.80;48.80;;;;;;5029019;28;20033;-48
2024/01/19 08:23:40;;;;;;;6.13;4.20;;;19.90;48.80;;;;;;5027149;28;20042;-47
2024/01/19 08:26:06;;;;;;;12.23;5.20;;;19.90;48.60;;;;;;5028169;28;20037;-49
2024/01/19 08:28:32;;;;;;;8.68;4.53;;;19.90;48.60;;;;;;5025498;28;20043;-48
2024/01/19 08:30:57;;;;;;;9.75;4.70;;;20.00;48.60;;;;;;5030900;28;20038;-52
2024/01/19 08:33:23;;;;;;;9.05;4.93;;;20.00;48.50;;;;;;5024281;28;20026;-46
2024/01/19 08:35:49;;;;;;;7.10;4.65;;;20.00;48.50;;;;;;5030812;28;20125;-48
2024/01/19 08:38:15;;;;;;;9.25;4.95;;;20.00;48.60;;;;;;5024467;28;20036;-48
2024/01/19 08:40:40;;;;;;;5.47;4.20;;;20.00;48.70;;;;;;5027036;28;20037;-52
2024/01/19 08:43:06;;;;;;;8.40;4.63;;;20.00;48.60;;;;;;5031518;28;20029;-50
2024/01/19 08:45:32;;;;;;;6.45;4.30;;;20.00;48.60;;;;;;5028481;28;20415;-46
2024/01/19 08:47:57;;;;;;;7.50;4.32;;;20.00;48.70;;;;;;5017184;28;20663;-50
2024/01/19 08:50:24;;;;;;;7.07;3.90;;;20.00;48.80;;;;;;5032508;28;20033;-49
2024/01/19 08:52:49;;;;;;;8.88;4.88;;;20.00;48.80;;;;;;5030618;28;20597;-51
2024/01/19 08:55:15;;;;;;;9.68;4.30;;;19.90;48.70;;;;;;5029718;28;20045;-52
2024/01/19 08:57:41;;;;;;;8.25;4.53;;;19.90;48.90;;;;;;5032516;28;20053;-47
2024/01/19 09:00:07;;;;;;;7.25;4.38;;;19.90;48.80;;;;;;5023616;28;20036;-47
2024/01/19 09:02:33;;;;;;;6.38;3.78;;;19.90;48.90;;;;;;5033396;28;20549;-47
2024/01/19 09:04:59;;;;;;;6.85;4.03;;;19.80;48.90;;;;;;5032310;28;20056;-47
2024/01/19 09:07:25;;;;;;;7.85;4.45;;;19.90;48.90;;;;;;5026432;28;20056;-50
2024/01/19 09:09:50;;;;;;;5.43;3.85;;;19.90;49.00;;;;;;5031229;28;20037;-47
2024/01/19 09:12:16;;;;;;;8.85;4.05;;;19.90;49.00;;;;;;5031431;28;20018;-50
2024/01/19 09:14:41;;;;;;;6.10;3.90;;;19.80;48.90;;;;;;5028686;28;20734;-49
2024/01/19 09:17:07;;;;;;;6.45;3.72;;;19.80;49.00;;;;;;5034847;28;20504;-49
2024/01/19 09:19:32;;;;;;;5.35;3.65;;;19.80;49.00;;;;;;5028848;28;20029;-50
2024/01/19 09:21:58;;;;;;;7.90;4.00;;;19.80;49.00;;;;;;5024895;28;20565;-47
2024/01/19 09:24:24;;;;;;;4.68;3.40;;;19.80;49.00;;;;;;5028985;28;20032;-50
2024/01/19 09:26:49;;;;;;;6.32;3.40;;;19.80;48.90;;;;;;5028163;28;20034;-48
2024/01/19 09:29:16;;;;;;;6.28;3.30;;;19.80;48.90;;;;;;5025092;28;20379;-48
2024/01/19 09:31:42;;;;;;;5.30;3.28;;;19.80;49.00;;;;;;5038356;28;20048;-47
2024/01/19 09:34:08;;;;;;;8.63;4.00;;;19.80;48.90;;;;;;5031033;28;20033;-47
2024/01/19 09:36:33;;;;;;;6.47;3.60;;;19.80;48.90;;;;;;5028715;28;21122;-47
2024/01/19 09:38:59;;;;;;;6.25;3.65;;;19.80;48.90;;;;;;5037369;28;20160;-49
2024/01/19 09:41:33;;;;;;;6.07;3.40;;;19.80;49.00;;;;;;5029164;28;20029;-50
2024/01/19 09:44:01;;;;;;;4.75;3.47;;;19.80;49.10;;;;;;5034743;28;20056;-49
2024/01/19 09:46:29;;;;;;;4.03;3.28;;;19.80;49.10;;;;;;5030602;28;20070;-50
2024/01/19 09:49:31;;;;;;;7.57;3.28;;;19.80;49.20;;;;;;5024635;28;20041;-47
2024/01/19 09:52:26;;;;;;;4.63;3.53;;;19.70;49.10;;;;;;5034391;28;20045;-50
2024/01/19 09:54:54;;;;;;;3.97;2.45;;;19.70;49.20;;;;;;5033981;28;20041;-50
2024/01/19 09:57:20;;;;;;;4.95;2.88;;;19.70;49.20;;;;;;5028557;28;20529;-50
2024/01/19 09:59:45;;;;;;;4.80;3.10;;;19.70;49.20;;;;;;5029170;28;20127;-50
2024/01/19 10:02:13;;;;;;;5.82;2.88;;;19.70;49.20;;;;;;5032028;28;20824;-51
2024/01/19 10:04:39;;;;;;;4.93;2.80;;;19.70;49.20;;;;;;5025870;28;20103;-50
2024/01/19 10:07:04;;;;;;;6.93;3.22;;;19.70;49.30;;;;;;5029957;28;20555;-46
2024/01/19 10:09:31;;;;;;;4.82;3.03;;;19.60;49.30;;;;;;5032809;28;20033;-49
2024/01/19 10:11:56;;;;;;;3.25;2.63;;;19.60;49.30;;;;;;5032837;28;20095;-47
2024/01/19 10:14:23;;;;;;;3.88;2.78;;;19.60;49.40;;;;;;5022081;28;20038;-50
2024/01/19 10:16:49;;;;;;;3.95;2.67;;;19.60;49.30;;;;;;5035285;28;20040;-50
2024/01/19 10:19:16;;;;;;;5.63;3.13;;;19.60;49.50;;;;;;5056814;22;20037;-49
2024/01/19 10:21:42;;;;;;;4.28;2.60;;;19.60;49.50;;;;;;5052299;28;20106;-49
2024/01/19 10:24:15;;;;;;;4.30;2.67;;;19.50;49.40;;;;;;5045177;28;20044;-49
2024/01/19 10:26:46;;;;;;;3.63;2.30;;;19.50;49.50;;;;;;5032077;28;20512;-47
2024/01/19 10:29:14;;;;;;;3.42;2.20;;;19.60;50.20;;;;;;5036104;28;20849;-49
2024/01/19 10:31:41;;;;;;;3.85;2.70;;;19.50;49.50;;;;;;5031910;28;20033;-48
2024/01/19 10:34:26;;;;;;;3.30;2.58;;;19.50;49.50;;;;;;5031417;28;20088;-47
2024/01/19 10:36:52;;;;;;;4.07;2.97;;;19.50;49.60;;;;;;5029339;28;20037;-47
2024/01/19 10:39:30;;;;;;;4.82;2.92;;;19.50;49.70;;;;;;5032693;28;20056;-47
2024/01/19 10:42:07;;;;;;;4.53;2.40;;;19.50;49.70;;;;;;5030150;28;20038;-47
2024/01/19 10:44:33;;;;;;;4.13;2.78;;;19.50;49.70;;;;;;5029409;28;20430;-49
2024/01/19 10:46:59;;;;;;;3.80;2.38;;;19.50;49.70;;;;;;5032980;28;20045;-48
2024/01/19 10:49:24;;;;;;;3.60;2.58;;;19.50;49.70;;;;;;5031756;28;20029;-48
2024/01/19 10:51:50;;;;;;;4.50;2.30;;;19.40;49.60;;;;;;5025817;28;20048;-48
2024/01/19 10:54:24;;;;;;;4.90;2.95;;;19.40;49.80;;;;;;5035338;28;20048;-49
2024/01/19 10:57:06;;;;;;;2.90;2.15;;;19.40;49.70;;;;;;5020787;28;20033;-49
2024/01/19 10:59:32;;;;;;;3.97;2.72;;;19.40;49.70;;;;;;5029568;28;20033;-47
2024/01/19 11:02:00;;;;;;;3.65;2.13;;;19.30;49.80;;;;;;5010420;28;20049;-49
2024/01/19 11:04:26;;;;;;;2.50;2.13;;;19.30;49.80;;;;;;5033399;28;20533;-48
2024/01/19 11:06:52;;;;;;;5.30;2.45;;;19.20;49.90;;;;;;5029217;28;20045;-47
2024/01/19 11:09:18;;;;;;;3.00;2.00;;;19.10;50.10;;;;;;5030764;28;20029;-47
2024/01/19 11:11:53;;;;;;;4.50;2.25;;;19.10;50.10;;;;;;5034520;28;20033;-47
2024/01/19 11:14:22;;;;;;;4.47;2.40;;;19.00;50.80;;;;;;5032060;28;20086;-47
2024/01/19 11:16:48;;;;;;;3.50;2.20;;;19.00;50.50;;;;;;5032450;28;20041;-47
2024/01/19 11:19:17;;;;;;;2.40;1.98;;;18.90;50.60;;;;;;5032782;28;20087;-49
2024/01/19 11:21:44;;;;;;;3.10;2.33;;;18.80;50.60;;;;;;5024510;28;20052;-47
2024/01/19 11:24:11;;;;;;;3.00;1.95;;;18.80;50.50;;;;;;5036557;28;20560;-52
2024/01/19 11:26:58;;;;;;;5.28;2.45;;;18.80;51.30;;;;;;5030906;28;20565;-50
2024/01/19 11:29:38;;;;;;;3.55;2.38;;;18.70;50.70;;;;;;5030033;28;20040;-49
2024/01/19 11:32:04;;;;;;;3.25;2.08;;;18.70;50.70;;;;;;5031444;28;20555;-50
2024/01/19 11:34:42;;;;;;;2.95;1.77;;;18.70;50.90;;;;;;5032623;28;20041;-51
2024/01/19 11:37:09;;;;;;;3.40;2.22;;;18.70;50.90;;;;;;5028907;28;20801;-49
2024/01/19 11:39:43;;;;;;;3.60;1.98;;;18.70;50.80;;;;;;5031791;28;20045;-48
2024/01/19 11:42:29;;;;;;;3.40;2.10;;;18.70;50.80;;;;;;5025917;28;20213;-46
2024/01/19 11:44:54;;;;;;;;;;;18.60;50.70;;;;;;5009963;28;20561;-47
2024/01/19 11:47:35;;;;;;;2.10;1.63;;;18.70;50.70;;;;;;5029942;28;19921;-45
2024/01/19 11:50:02;;;;;;;2.40;1.70;;;18.70;50.70;;;;;;5027569;28;20061;-45
2024/01/19 11:52:35;;;;;;;3.25;2.25;;;18.70;50.70;;;;;;5028483;28;20494;-49
2024/01/19 11:55:26;;;;;;;2.63;1.98;;;18.70;50.70;;;;;;5033190;28;20043;-50
2024/01/19 11:57:58;;;;;;;3.47;1.98;;;18.70;50.80;;;;;;5028243;28;20036;-45
2024/01/19 12:00:23;;;;;;;3.40;1.90;;;18.70;50.80;;;;;;5027083;28;20580;-46
2024/01/19 12:02:54;;;;;;;2.40;1.63;;;18.60;50.70;;;;;;5034864;28;20047;-53
2024/01/19 12:05:21;;;;;;;3.20;1.70;;;18.70;50.80;;;;;;5028031;28;20067;-49
2024/01/19 12:07:46;;;;;;;3.05;1.63;;;18.70;50.70;;;;;;5031211;28;20037;-48
2024/01/19 12:10:18;;;;;;;2.25;1.80;;;18.70;50.70;;;;;;5023112;28;20037;-50
2024/01/19 12:12:43;;;;;;;4.47;1.83;;;18.80;50.60;;;;;;5027738;28;20117;-45
2024/01/19 12:15:10;;;;;;;2.97;2.05;;;18.80;50.40;;;;;;5030039;28;20056;-52
2024/01/19 12:17:40;;;;;;;3.53;1.75;;;18.90;50.30;;;;;;5029227;28;20531;-50
2024/01/19 12:20:09;;;;;;;2.20;1.70;;;19.00;50.10;;;;;;5028266;28;20505;-50
2024/01/19 12:22:36;;;;;;;3.97;2.25;;;19.10;49.90;;;;;;5027764;28;20033;-46
2024/01/19 12:25:22;;;;;;;2.22;1.50;;;19.20;49.80;;;;;;5027409;28;20030;-45
2024/01/19 12:27:48;;;;;;;2.42;1.45;;;19.30;49.50;;;;;;4991362;28;20035;-48
2024/01/19 12:30:21;;;;;;;2.05;1.42;;;19.40;49.30;;;;;;5028241;28;20414;-55
2024/01/19 12:32:47;;;;;;;3.28;2.03;;;19.40;49.20;;;;;;5027550;28;20486;-51
2024/01/19 12:35:12;;;;;;;2.33;1.55;;;19.60;49.10;;;;;;5035864;28;20040;-52
2024/01/19 12:37:38;;;;;;;3.35;1.48;;;19.60;48.90;;;;;;5009056;28;20124;-55
2024/01/19 12:40:10;;;;;;;2.28;1.63;;;19.70;48.80;;;;;;5024265;28;20037;-45
2024/01/19 12:42:36;;;;;;;3.28;1.83;;;19.80;48.80;;;;;;5029275;28;20034;-47